Terminal Aerodrome Forecast
Issued by NWS Green Bay, WI

Home | Current Version | Previous Version | Graphics & Text | Print | Product List | Glossary On
Versions: 1 2 3 4 5 6 7 8 9 10 11 12 13 14 15 16
000
FTUS43 KGRB 210324 AAA
TAFGRB
TAF AMD
KGRB 210324Z 2103/2124 27010G15KT P6SM OVC015
      TEMPO 2103/2106 5SM -RADZ BR BKN009
     FM211300 33010KT P6SM BKN012
     FM211600 35011KT P6SM BKN018
     FM211700 35011KT P6SM FEW025 SCT050
     FM212300 02008KT P6SM FEW050=

USA.gov is the U.S. government's official web portal to all federal, state and local government web resources and services.